Time;durP1;ratioP1;P1;durP2;ratioP2;P2;SDS_P1;SDS_P2;PMS_P1;PMS_P2;Temp;Humidity;BMP_temperature;BMP_pressure;BME280_temperature;BME280_humidity;BME280_pressure;Samples;Min_cycle;Max_cycle;Signal;HPM_P1;HPM_P2
2023/09/29 00:02:20;;;;;;;16.00;6.28;;;16.50;99.90;;;;;;5012248;28;20505;-59
2023/09/29 00:04:46;;;;;;;13.90;6.05;;;16.50;99.90;;;;;;4994254;28;20053;-60
2023/09/29 00:07:12;;;;;;;16.27;7.18;;;16.60;99.90;;;;;;4994583;28;20537;-61
2023/09/29 00:09:38;;;;;;;13.35;6.28;;;16.60;99.90;;;;;;4993203;28;20057;-60
2023/09/29 00:12:05;;;;;;;13.90;5.82;;;16.60;99.90;;;;;;4992745;28;20078;-60
2023/09/29 00:14:31;;;;;;;16.05;5.70;;;16.60;99.90;;;;;;4992803;28;20085;-59
2023/09/29 00:16:57;;;;;;;12.57;5.55;;;16.60;99.90;;;;;;5006848;28;20058;-60
2023/09/29 00:19:23;;;;;;;17.70;5.68;;;16.60;99.90;;;;;;5012061;28;20081;-61
2023/09/29 00:21:50;;;;;;;15.05;6.18;;;16.60;99.90;;;;;;5012016;28;20042;-61
2023/09/29 00:24:16;;;;;;;8.57;6.00;;;16.50;99.90;;;;;;5011892;28;20056;-61
2023/09/29 00:26:42;;;;;;;12.63;5.82;;;16.70;99.90;;;;;;4998922;28;20145;-59
2023/09/29 00:29:08;;;;;;;14.93;5.60;;;16.70;99.90;;;;;;4992106;28;20062;-59
2023/09/29 00:31:35;;;;;;;13.90;5.80;;;16.60;99.90;;;;;;4992385;28;20073;-60
2023/09/29 00:34:01;;;;;;;17.05;6.22;;;16.70;99.90;;;;;;4992346;28;20054;-60
2023/09/29 00:36:27;;;;;;;14.98;5.53;;;16.70;99.90;;;;;;5002305;28;20434;-61
2023/09/29 00:38:54;;;;;;;16.48;5.82;;;16.60;99.90;;;;;;5010886;28;20054;-59
2023/09/29 00:41:20;;;;;;;14.80;5.57;;;16.60;99.90;;;;;;5011462;28;20462;-60
2023/09/29 00:43:47;;;;;;;14.75;5.40;;;16.60;99.90;;;;;;5011766;28;20137;-61
2023/09/29 00:46:14;;;;;;;18.98;6.55;;;16.70;99.90;;;;;;5002717;28;20074;-61
2023/09/29 00:48:41;;;;;;;14.02;5.80;;;16.70;99.90;;;;;;4991676;28;20121;-61
2023/09/29 00:51:07;;;;;;;14.05;5.47;;;16.70;99.90;;;;;;4992425;28;20050;-60
2023/09/29 00:53:35;;;;;;;14.52;5.57;;;16.60;99.90;;;;;;4991947;28;20152;-60
2023/09/29 00:56:02;;;;;;;10.27;5.28;;;16.60;99.90;;;;;;4999209;28;20050;-59
2023/09/29 00:58:29;;;;;;;12.55;5.70;;;16.70;99.90;;;;;;5010924;28;20045;-62
2023/09/29 01:00:55;;;;;;;12.25;5.68;;;16.60;99.90;;;;;;5011736;28;20041;-61
2023/09/29 01:03:22;;;;;;;12.95;5.55;;;16.70;99.90;;;;;;5011704;28;20091;-59
2023/09/29 01:05:49;;;;;;;14.52;5.82;;;16.70;99.90;;;;;;5005991;28;20052;-60
2023/09/29 01:08:20;;;;;;;14.95;4.97;;;16.70;99.90;;;;;;4991453;28;20054;-60
2023/09/29 01:10:47;;;;;;;14.52;5.35;;;16.70;99.90;;;;;;4991827;28;20514;-61
2023/09/29 01:13:15;;;;;;;13.05;5.97;;;16.70;99.90;;;;;;4991495;28;20058;-60
2023/09/29 01:15:42;;;;;;;12.43;5.30;;;16.70;99.90;;;;;;4995774;28;20042;-60
2023/09/29 01:18:11;;;;;;;13.48;4.68;;;16.70;99.90;;;;;;5010235;28;20359;-58
2023/09/29 01:20:40;;;;;;;16.67;5.88;;;16.70;99.90;;;;;;5011156;28;20124;-61
2023/09/29 01:23:07;;;;;;;14.77;5.18;;;16.70;99.90;;;;;;5011122;28;20094;-61
2023/09/29 01:25:35;;;;;;;12.38;4.88;;;16.70;99.90;;;;;;5007649;28;20495;-59
2023/09/29 01:28:05;;;;;;;12.20;5.13;;;16.80;99.90;;;;;;4990831;28;20062;-60
2023/09/29 01:30:31;;;;;;;16.02;5.68;;;16.70;99.90;;;;;;4991213;28;20055;-60
2023/09/29 01:32:59;;;;;;;12.02;4.88;;;16.80;99.90;;;;;;4991264;28;20054;-61
2023/09/29 01:35:27;;;;;;;11.18;4.90;;;16.70;99.90;;;;;;4992991;28;20046;-60
2023/09/29 01:37:55;;;;;;;13.88;4.97;;;16.80;99.90;;;;;;5009921;28;20371;-60
2023/09/29 01:40:22;;;;;;;13.68;5.20;;;16.80;99.90;;;;;;5010673;28;20053;-60
2023/09/29 01:42:50;;;;;;;10.70;4.63;;;16.80;99.90;;;;;;5010237;28;20073;-61
2023/09/29 01:45:17;;;;;;;14.57;4.72;;;16.80;99.90;;;;;;5009913;28;20323;-60
2023/09/29 01:47:45;;;;;;;11.20;4.72;;;16.80;99.90;;;;;;4990599;28;20061;-62
2023/09/29 01:50:16;;;;;;;11.50;4.18;;;16.80;99.90;;;;;;4990957;28;20399;-58
2023/09/29 01:52:47;;;;;;;13.63;4.82;;;16.80;99.90;;;;;;4991072;28;20109;-60
2023/09/29 01:55:14;;;;;;;11.95;5.18;;;16.80;99.90;;;;;;4991366;28;20090;-61
2023/09/29 01:57:42;;;;;;;10.45;4.80;;;16.80;99.90;;;;;;4971123;28;20046;-59
2023/09/29 02:00:14;;;;;;;13.10;4.55;;;16.90;99.90;;;;;;4971156;28;20365;-59
2023/09/29 02:02:43;;;;;;;11.43;4.55;;;16.90;99.90;;;;;;4971445;28;20047;-62
2023/09/29 02:05:11;;;;;;;13.35;5.03;;;16.90;99.90;;;;;;4971473;28;20046;-60
2023/09/29 02:07:38;;;;;;;12.68;4.82;;;16.90;99.90;;;;;;5009208;28;20057;-61
2023/09/29 02:10:07;;;;;;;14.77;4.07;;;16.90;99.90;;;;;;4992853;28;20049;-60
2023/09/29 02:12:34;;;;;;;11.20;4.53;;;16.90;99.90;;;;;;5010370;28;20749;-61
2023/09/29 02:15:01;;;;;;;11.13;4.30;;;16.90;99.90;;;;;;5009822;28;20144;-61
2023/09/29 02:17:28;;;;;;;15.05;4.85;;;17.00;99.90;;;;;;4991292;28;20429;-61
2023/09/29 02:19:54;;;;;;;8.15;3.97;;;17.00;99.90;;;;;;4990105;28;20050;-60
2023/09/29 02:22:20;;;;;;;10.32;4.97;;;17.00;99.90;;;;;;4990080;28;20194;-60
2023/09/29 02:24:46;;;;;;;11.82;4.68;;;17.00;99.90;;;;;;4990094;28;20064;-60
2023/09/29 02:27:13;;;;;;;12.57;4.45;;;17.00;99.90;;;;;;5005703;28;20050;-60
2023/09/29 02:29:39;;;;;;;15.65;5.00;;;16.90;99.90;;;;;;5009393;28;20069;-61
2023/09/29 02:32:06;;;;;;;13.90;4.32;;;17.00;99.90;;;;;;5009720;28;20053;-60
2023/09/29 02:34:32;;;;;;;10.68;4.22;;;17.00;99.90;;;;;;5009521;28;20061;-60
2023/09/29 02:36:59;;;;;;;10.25;3.78;;;16.90;99.90;;;;;;4994915;28;20483;-61
2023/09/29 02:39:25;;;;;;;12.60;4.63;;;16.90;99.90;;;;;;5005055;28;20061;-60
2023/09/29 02:41:51;;;;;;;12.27;4.93;;;16.90;99.90;;;;;;5009501;28;20057;-61
2023/09/29 02:44:18;;;;;;;14.02;4.57;;;17.00;99.90;;;;;;5009373;28;20057;-60
2023/09/29 02:46:45;;;;;;;13.35;4.93;;;17.00;99.90;;;;;;5008940;28;20097;-62
2023/09/29 02:49:11;;;;;;;14.13;4.47;;;17.00;99.90;;;;;;5009045;28;20054;-62
2023/09/29 02:51:37;;;;;;;10.25;4.57;;;17.00;99.90;;;;;;5010057;28;20157;-61
2023/09/29 02:54:06;;;;;;;15.18;5.47;;;17.00;99.90;;;;;;5009955;28;20061;-61
2023/09/29 02:56:33;;;;;;;13.60;5.97;;;16.90;99.90;;;;;;5008844;28;20053;-60
2023/09/29 02:59:01;;;;;;;11.93;4.70;;;16.90;99.90;;;;;;5009039;28;20041;-60
2023/09/29 03:01:28;;;;;;;11.35;4.80;;;16.90;99.90;;;;;;5006886;28;20053;-61
2023/09/29 03:03:58;;;;;;;11.35;5.10;;;16.90;99.90;;;;;;5009864;28;20046;-60
2023/09/29 03:06:24;;;;;;;12.27;4.85;;;16.90;99.90;;;;;;5008938;28;20357;-61
2023/09/29 03:08:54;;;;;;;13.00;5.25;;;16.90;99.90;;;;;;5008098;28;20506;-60
2023/09/29 03:11:21;;;;;;;12.32;5.22;;;16.90;99.90;;;;;;5009382;28;20081;-60
2023/09/29 03:13:48;;;;;;;12.88;4.78;;;16.90;99.90;;;;;;5008738;28;20042;-61
2023/09/29 03:16:14;;;;;;;9.82;5.05;;;17.00;99.90;;;;;;5008362;28;20042;-60
2023/09/29 03:18:40;;;;;;;10.20;5.07;;;16.90;99.90;;;;;;4987918;28;20141;-61
2023/09/29 03:21:07;;;;;;;12.40;5.03;;;16.90;99.90;;;;;;4990038;28;20061;-60
2023/09/29 03:23:34;;;;;;;12.82;5.65;;;16.90;99.90;;;;;;5001854;28;20046;-60
2023/09/29 03:26:04;;;;;;;14.80;5.28;;;16.90;99.90;;;;;;5007416;28;20054;-60
2023/09/29 03:28:32;;;;;;;9.40;4.68;;;16.90;99.90;;;;;;5008438;28;20064;-61
2023/09/29 03:31:00;;;;;;;13.07;5.53;;;17.00;99.90;;;;;;5008848;28;20072;-61
2023/09/29 03:33:27;;;;;;;13.50;5.38;;;17.00;99.90;;;;;;5009319;28;20050;-61
2023/09/29 03:35:56;;;;;;;10.25;5.07;;;16.90;99.90;;;;;;5009363;28;20046;-60
2023/09/29 03:38:25;;;;;;;12.60;5.13;;;17.00;99.90;;;;;;5008446;28;20056;-61
2023/09/29 03:40:52;;;;;;;11.70;4.93;;;17.00;99.90;;;;;;5010740;28;20120;-61
2023/09/29 03:43:19;;;;;;;10.65;4.43;;;17.00;99.90;;;;;;5012775;28;20378;-60
2023/09/29 03:45:46;;;;;;;12.32;4.97;;;17.00;99.90;;;;;;5012488;28;20045;-59
2023/09/29 03:48:15;;;;;;;12.40;4.97;;;16.90;99.90;;;;;;5012410;28;20054;-59
2023/09/29 03:50:43;;;;;;;9.18;5.13;;;17.00;99.90;;;;;;5013181;28;20104;-59
2023/09/29 03:53:09;;;;;;;11.57;6.07;;;17.10;99.90;;;;;;5012929;28;20056;-60
2023/09/29 03:55:35;;;;;;;10.13;4.90;;;17.10;99.90;;;;;;5012238;28;20065;-60
2023/09/29 03:58:02;;;;;;;11.70;5.78;;;17.10;99.90;;;;;;5011867;28;20054;-60
2023/09/29 04:00:30;;;;;;;11.80;5.18;;;17.10;99.90;;;;;;5012488;28;20053;-60
2023/09/29 04:02:57;;;;;;;12.85;5.68;;;17.10;99.90;;;;;;5012035;28;20098;-60
2023/09/29 04:05:23;;;;;;;12.73;5.20;;;17.10;99.90;;;;;;5012301;28;20380;-60
2023/09/29 04:07:50;;;;;;;18.45;5.43;;;17.10;99.90;;;;;;5011980;28;20061;-61
2023/09/29 04:10:16;;;;;;;10.35;5.25;;;17.10;99.90;;;;;;4994629;28;20041;-61
2023/09/29 04:12:47;;;;;;;13.63;6.70;;;17.30;99.90;;;;;;5012085;28;20100;-60
2023/09/29 04:15:14;;;;;;;11.05;6.30;;;17.20;99.90;;;;;;5012169;28;20085;-60
2023/09/29 04:17:40;;;;;;;13.00;6.28;;;17.20;99.90;;;;;;5011640;28;20053;-59
2023/09/29 04:20:08;;;;;;;14.02;6.22;;;17.20;99.90;;;;;;5011984;28;20112;-60
2023/09/29 04:22:35;;;;;;;11.27;6.68;;;17.30;99.90;;;;;;5012167;28;20049;-59
2023/09/29 04:25:02;;;;;;;17.02;6.05;;;17.30;99.90;;;;;;5011883;28;20128;-61
2023/09/29 04:27:29;;;;;;;13.20;6.30;;;17.30;99.90;;;;;;5011101;28;20129;-61
2023/09/29 04:29:55;;;;;;;12.95;6.40;;;17.30;99.90;;;;;;5011771;28;20053;-60
2023/09/29 04:32:21;;;;;;;14.13;6.68;;;17.30;99.90;;;;;;5011213;28;20050;-60
2023/09/29 04:34:48;;;;;;;10.63;5.57;;;17.40;99.90;;;;;;4994123;28;20050;-61
2023/09/29 04:37:14;;;;;;;14.23;6.55;;;17.40;99.90;;;;;;5010680;28;20245;-60
2023/09/29 04:39:41;;;;;;;11.93;6.15;;;17.40;99.90;;;;;;5011378;28;20041;-58
2023/09/29 04:42:07;;;;;;;11.40;6.97;;;17.30;99.90;;;;;;5010872;28;20137;-60
2023/09/29 04:44:33;;;;;;;11.57;5.85;;;17.40;99.90;;;;;;5011192;28;20412;-60
2023/09/29 04:47:00;;;;;;;11.63;6.30;;;17.40;99.90;;;;;;5009678;28;20382;-58
2023/09/29 04:49:26;;;;;;;11.02;6.63;;;17.50;99.90;;;;;;5011744;28;20096;-60
2023/09/29 04:51:53;;;;;;;11.82;6.88;;;17.40;99.90;;;;;;5010497;28;20065;-60
2023/09/29 04:54:19;;;;;;;14.18;6.38;;;17.40;99.90;;;;;;5011504;28;20057;-61
2023/09/29 04:56:45;;;;;;;10.75;6.68;;;17.50;99.90;;;;;;5010218;28;20060;-60
2023/09/29 04:59:11;;;;;;;12.43;6.35;;;17.50;99.90;;;;;;5011539;28;20081;-61
2023/09/29 05:01:38;;;;;;;11.00;6.45;;;17.40;99.90;;;;;;5010686;28;20082;-61
2023/09/29 05:04:05;;;;;;;12.27;6.97;;;17.50;99.90;;;;;;5010990;28;20451;-60
2023/09/29 05:06:31;;;;;;;11.05;6.05;;;17.40;99.90;;;;;;5010417;28;20057;-60
2023/09/29 05:08:57;;;;;;;10.15;6.20;;;17.30;99.90;;;;;;5011518;28;20153;-61
2023/09/29 05:11:25;;;;;;;12.05;6.45;;;17.40;99.90;;;;;;5010287;28;20128;-60
2023/09/29 05:13:52;;;;;;;11.65;6.22;;;17.40;99.90;;;;;;5010722;28;20102;-59
2023/09/29 05:16:19;;;;;;;9.85;6.32;;;17.40;99.90;;;;;;5010267;28;20053;-61
2023/09/29 05:18:46;;;;;;;13.88;6.57;;;17.40;99.90;;;;;;5010758;28;20501;-60
2023/09/29 05:21:13;;;;;;;11.55;6.22;;;17.40;99.90;;;;;;5010372;28;20069;-61
2023/09/29 05:23:40;;;;;;;10.43;6.18;;;17.40;99.90;;;;;;5009973;28;20046;-62
2023/09/29 05:26:07;;;;;;;12.52;6.00;;;17.40;99.90;;;;;;5006888;28;20038;-62
2023/09/29 05:28:35;;;;;;;10.27;5.43;;;17.40;99.90;;;;;;5009594;28;20425;-61
2023/09/29 05:31:03;;;;;;;9.55;6.70;;;17.40;99.90;;;;;;5010229;28;20430;-59
2023/09/29 05:33:30;;;;;;;14.70;6.45;;;17.30;99.90;;;;;;5007143;28;20057;-61
2023/09/29 05:35:57;;;;;;;10.60;5.55;;;17.40;99.90;;;;;;5008746;28;20085;-61
2023/09/29 05:38:24;;;;;;;10.02;5.38;;;17.40;99.90;;;;;;5007926;28;20057;-64
2023/09/29 05:40:51;;;;;;;8.38;5.32;;;17.40;99.90;;;;;;4991023;28;20049;-61
2023/09/29 05:43:18;;;;;;;9.57;5.35;;;17.50;99.90;;;;;;4990019;28;20058;-62
2023/09/29 05:45:47;;;;;;;10.52;5.72;;;17.40;99.90;;;;;;5008404;28;20041;-61
2023/09/29 05:48:15;;;;;;;9.55;5.43;;;17.50;99.90;;;;;;5008283;28;20171;-60
2023/09/29 05:50:41;;;;;;;10.95;5.50;;;17.40;99.90;;;;;;5010424;28;20056;-61
2023/09/29 05:53:07;;;;;;;9.90;4.95;;;17.60;99.90;;;;;;5010030;28;20045;-61
2023/09/29 05:55:34;;;;;;;10.15;5.00;;;17.60;99.90;;;;;;5009954;28;20060;-61
2023/09/29 05:58:01;;;;;;;7.18;4.43;;;17.60;99.90;;;;;;5006047;28;20088;-61
2023/09/29 06:00:27;;;;;;;9.32;4.80;;;17.60;99.90;;;;;;5009899;28;20510;-60
2023/09/29 06:02:53;;;;;;;8.85;4.95;;;17.60;99.90;;;;;;5007861;28;20042;-61
2023/09/29 06:05:20;;;;;;;9.65;4.88;;;17.60;99.90;;;;;;5009869;28;20141;-62
2023/09/29 06:07:47;;;;;;;8.02;4.68;;;17.70;99.90;;;;;;5009356;28;20116;-60
2023/09/29 06:10:13;;;;;;;9.38;4.88;;;17.70;99.90;;;;;;5010364;28;20048;-62
2023/09/29 06:12:39;;;;;;;10.43;4.45;;;17.70;99.90;;;;;;5010172;28;20046;-60
2023/09/29 06:15:06;;;;;;;7.82;4.88;;;17.80;99.90;;;;;;5010047;28;20061;-61
2023/09/29 06:17:33;;;;;;;7.85;4.32;;;17.80;99.90;;;;;;5009394;28;20495;-61
2023/09/29 06:19:59;;;;;;;7.03;5.03;;;17.70;99.90;;;;;;5009355;28;20060;-61
2023/09/29 06:22:25;;;;;;;8.50;4.60;;;17.70;99.90;;;;;;5009303;28;20084;-60
2023/09/29 06:24:51;;;;;;;6.75;4.25;;;17.80;99.90;;;;;;5009277;28;20053;-62
2023/09/29 06:27:18;;;;;;;7.20;4.78;;;17.80;99.90;;;;;;5008203;28;20064;-61
2023/09/29 06:29:46;;;;;;;10.40;4.78;;;17.80;99.90;;;;;;5009156;28;20053;-62
2023/09/29 06:32:13;;;;;;;7.43;4.55;;;17.90;99.90;;;;;;5009407;28;20450;-62
2023/09/29 06:34:39;;;;;;;7.38;4.70;;;17.90;99.90;;;;;;5010043;28;20494;-60
2023/09/29 06:37:05;;;;;;;11.63;4.68;;;17.90;99.90;;;;;;5008929;28;20070;-62
2023/09/29 06:39:31;;;;;;;8.77;4.88;;;17.90;99.90;;;;;;5008684;28;20042;-62
2023/09/29 06:41:58;;;;;;;7.53;4.63;;;18.00;99.90;;;;;;5009269;28;20057;-62
2023/09/29 06:44:24;;;;;;;9.05;4.47;;;18.00;99.90;;;;;;5005938;28;20054;-60
2023/09/29 06:46:50;;;;;;;7.50;4.60;;;18.00;99.90;;;;;;5010009;28;20124;-61
2023/09/29 06:49:16;;;;;;;6.15;4.18;;;18.00;99.90;;;;;;5010695;28;20054;-61
2023/09/29 06:51:43;;;;;;;7.25;4.30;;;18.00;99.90;;;;;;5010707;28;20477;-61
2023/09/29 06:54:10;;;;;;;6.53;4.32;;;18.10;99.90;;;;;;5010192;28;20053;-62
2023/09/29 06:56:37;;;;;;;6.70;4.65;;;18.10;99.90;;;;;;5010778;28;20050;-61
2023/09/29 06:59:03;;;;;;;7.68;4.47;;;18.10;99.90;;;;;;5009947;28;20054;-60
2023/09/29 07:01:29;;;;;;;6.65;4.18;;;18.10;99.90;;;;;;5010987;28;20042;-60
2023/09/29 07:03:55;;;;;;;6.47;4.63;;;18.20;99.90;;;;;;5010757;28;20491;-62
2023/09/29 07:06:23;;;;;;;8.65;4.70;;;18.20;99.90;;;;;;5010825;28;20050;-62
2023/09/29 07:08:50;;;;;;;7.03;4.07;;;18.10;99.90;;;;;;5010938;28;20385;-61
2023/09/29 07:11:16;;;;;;;5.90;4.53;;;18.10;99.90;;;;;;5011328;28;20046;-61
2023/09/29 07:13:43;;;;;;;9.32;4.90;;;18.10;99.90;;;;;;5011517;28;20482;-62
2023/09/29 07:16:09;;;;;;;5.60;4.68;;;18.00;99.90;;;;;;5014301;28;20060;-61
2023/09/29 07:18:36;;;;;;;8.52;4.57;;;18.10;99.90;;;;;;5014824;28;20065;-62
2023/09/29 07:21:02;;;;;;;9.95;4.75;;;18.00;99.90;;;;;;5014523;28;20056;-63
2023/09/29 07:23:30;;;;;;;7.60;4.85;;;18.20;99.90;;;;;;5012839;28;20111;-63
2023/09/29 07:25:56;;;;;;;8.35;5.03;;;18.20;99.90;;;;;;5012923;28;20042;-62
2023/09/29 07:28:23;;;;;;;6.40;4.80;;;18.20;99.90;;;;;;5012541;28;20232;-62
2023/09/29 07:30:52;;;;;;;6.68;4.85;;;18.40;99.90;;;;;;5013061;28;20046;-64
2023/09/29 07:33:19;;;;;;;7.03;4.60;;;18.40;99.90;;;;;;5012955;28;20081;-64
2023/09/29 07:35:45;;;;;;;7.70;4.10;;;18.60;99.90;;;;;;5012704;28;20061;-62
2023/09/29 07:38:13;;;;;;;9.38;5.15;;;18.70;99.90;;;;;;5012565;28;20064;-61
2023/09/29 07:40:39;;;;;;;6.97;4.35;;;18.90;99.90;;;;;;4995389;28;20088;-63
2023/09/29 07:43:06;;;;;;;7.60;4.70;;;19.00;99.90;;;;;;5012835;28;20073;-63
2023/09/29 07:45:33;;;;;;;8.75;4.32;;;19.10;99.90;;;;;;4994978;28;20046;-60
2023/09/29 07:47:59;;;;;;;5.43;4.30;;;19.20;99.90;;;;;;5011694;28;20072;-62
2023/09/29 07:50:25;;;;;;;6.95;4.60;;;19.30;99.90;;;;;;5013039;28;20443;-62
2023/09/29 07:52:52;;;;;;;7.13;4.63;;;19.50;99.90;;;;;;5012733;28;20065;-63
2023/09/29 07:55:18;;;;;;;8.30;4.75;;;19.40;99.90;;;;;;4994081;28;20428;-61
2023/09/29 07:57:45;;;;;;;7.47;4.95;;;19.60;99.90;;;;;;4993776;28;20054;-62
2023/09/29 08:00:15;;;;;;;7.85;4.65;;;19.70;99.90;;;;;;4992783;28;20061;-62
2023/09/29 08:02:43;;;;;;;5.88;4.45;;;19.70;99.90;;;;;;4991207;28;20049;-62
2023/09/29 08:05:12;;;;;;;7.47;4.47;;;19.80;99.90;;;;;;4992868;28;20408;-64
2023/09/29 08:07:40;;;;;;;6.38;4.63;;;19.80;99.90;;;;;;4994374;28;20046;-64
2023/09/29 08:10:08;;;;;;;8.05;4.65;;;19.90;99.90;;;;;;4975395;28;20522;-63
2023/09/29 08:12:36;;;;;;;10.77;5.10;;;20.00;99.90;;;;;;4973238;28;20054;-61
2023/09/29 08:15:06;;;;;;;8.02;4.65;;;19.90;99.90;;;;;;4972834;28;20066;-62
2023/09/29 08:17:33;;;;;;;5.32;4.70;;;20.00;99.90;;;;;;5004701;28;20467;-62
2023/09/29 08:19:59;;;;;;;6.05;4.43;;;20.10;99.90;;;;;;4992378;28;20046;-63
2023/09/29 08:22:26;;;;;;;7.07;4.35;;;20.10;99.90;;;;;;4991891;28;20054;-60
2023/09/29 08:24:52;;;;;;;5.75;4.55;;;20.10;99.90;;;;;;4991972;28;20046;-61
2023/09/29 08:27:18;;;;;;;8.32;4.90;;;20.00;99.90;;;;;;4990128;28;20038;-63
2023/09/29 08:29:44;;;;;;;5.55;4.82;;;20.00;99.90;;;;;;4993722;28;20518;-63
2023/09/29 08:32:11;;;;;;;7.50;4.70;;;20.00;99.90;;;;;;4991250;28;20050;-64
2023/09/29 08:34:39;;;;;;;5.47;4.85;;;20.00;99.90;;;;;;4991918;28;20082;-63
2023/09/29 08:37:05;;;;;;;7.13;4.43;;;19.90;99.90;;;;;;5003139;28;20041;-63
2023/09/29 08:39:31;;;;;;;6.85;4.20;;;20.00;99.90;;;;;;5011293;28;20054;-63
2023/09/29 08:42:05;;;;;;;6.90;5.47;;;20.10;99.90;;;;;;4994434;28;20068;-62
2023/09/29 08:44:33;;;;;;;5.68;4.25;;;20.10;99.90;;;;;;5011624;28;20341;-61
2023/09/29 08:47:01;;;;;;;7.25;4.53;;;20.20;99.90;;;;;;5000094;28;20057;-63
2023/09/29 08:49:29;;;;;;;6.28;4.13;;;20.30;99.90;;;;;;4992344;28;20058;-62
2023/09/29 08:51:57;;;;;;;6.70;4.22;;;20.50;99.90;;;;;;4992102;28;20046;-64
2023/09/29 08:54:25;;;;;;;6.22;4.18;;;20.60;99.90;;;;;;4991593;28;20403;-63
2023/09/29 08:56:51;;;;;;;7.85;4.85;;;20.60;99.90;;;;;;5001105;28;20065;-62
2023/09/29 08:59:18;;;;;;;5.97;4.22;;;20.70;99.90;;;;;;4993950;28;20052;-61
2023/09/29 09:01:46;;;;;;;7.43;4.63;;;20.90;99.90;;;;;;5007456;28;20454;-63
2023/09/29 09:04:12;;;;;;;6.30;4.70;;;21.00;99.90;;;;;;4990286;28;20679;-63
2023/09/29 09:06:38;;;;;;;5.03;3.72;;;21.10;99.90;;;;;;4998329;28;20046;-63
2023/09/29 09:09:05;;;;;;;5.68;4.25;;;21.10;99.90;;;;;;5011302;28;20046;-60
2023/09/29 09:11:41;;;;;;;5.82;4.15;;;21.10;99.90;;;;;;5010752;28;20054;-61
2023/09/29 09:14:10;;;;;;;5.68;4.15;;;21.00;99.90;;;;;;5011113;28;20165;-61
2023/09/29 09:16:38;;;;;;;7.63;4.13;;;21.00;99.90;;;;;;5002175;28;20149;-60
2023/09/29 09:19:09;;;;;;;8.93;4.43;;;21.10;99.90;;;;;;4997800;28;20093;-60
2023/09/29 09:21:35;;;;;;;6.03;4.00;;;21.10;99.90;;;;;;5006752;28;20353;-60
2023/09/29 09:24:01;;;;;;;35.08;8.23;;;21.20;99.90;;;;;;4993433;28;20507;-61
2023/09/29 09:26:28;;;;;;;10.60;5.20;;;21.20;99.90;;;;;;4993552;28;20120;-60
2023/09/29 09:28:55;;;;;;;6.65;3.75;;;21.00;99.90;;;;;;4992594;28;20050;-60
2023/09/29 09:31:21;;;;;;;5.45;3.72;;;21.00;99.90;;;;;;4993159;28;20050;-61
2023/09/29 09:33:51;;;;;;;6.55;3.60;;;20.90;99.90;;;;;;4993346;28;20050;-60
2023/09/29 09:36:18;;;;;;;8.82;3.60;;;20.80;99.90;;;;;;5002178;28;20367;-61
2023/09/29 09:38:47;;;;;;;5.63;3.92;;;20.80;99.90;;;;;;5001512;28;20045;-61
2023/09/29 09:41:15;;;;;;;7.45;3.92;;;20.80;99.90;;;;;;5012778;28;20056;-60
2023/09/29 09:43:43;;;;;;;7.22;4.18;;;20.70;99.90;;;;;;5012815;28;20042;-60
2023/09/29 09:46:12;;;;;;;6.68;4.03;;;20.80;99.90;;;;;;5012399;28;20624;-60
2023/09/29 09:48:42;;;;;;;6.25;4.00;;;20.80;99.90;;;;;;5011727;28;20058;-61
2023/09/29 09:51:08;;;;;;;8.82;4.10;;;20.70;99.90;;;;;;5012858;28;20058;-61
2023/09/29 09:53:37;;;;;;;7.60;4.13;;;20.90;99.90;;;;;;5011780;28;20057;-61
2023/09/29 09:56:28;;;;;;;8.98;4.70;;;20.80;99.90;;;;;;5010924;28;20045;-62
2023/09/29 09:58:54;;;;;;;10.35;4.03;;;20.80;99.90;;;;;;5011268;28;20394;-60
2023/09/29 10:01:21;;;;;;;12.57;4.30;;;20.80;99.90;;;;;;5011124;28;20401;-61
2023/09/29 10:03:47;;;;;;;6.22;4.68;;;20.70;99.90;;;;;;5011909;28;20065;-61
2023/09/29 10:06:14;;;;;;;8.20;4.40;;;20.80;99.90;;;;;;5011103;28;20104;-62
2023/09/29 10:08:42;;;;;;;5.68;4.15;;;20.80;99.90;;;;;;5011419;28;20050;-61
2023/09/29 10:11:13;;;;;;;6.85;4.47;;;20.90;99.90;;;;;;5009657;28;20113;-60
2023/09/29 10:13:40;;;;;;;;;;;20.90;99.90;;;;;;4994758;28;20046;-58
2023/09/29 10:16:06;;;;;;;8.27;4.05;;;20.90;99.90;;;;;;5010053;28;19929;-59
2023/09/29 10:18:33;;;;;;;7.80;4.22;;;21.10;99.90;;;;;;5009148;28;20537;-60
2023/09/29 10:21:07;;;;;;;6.68;3.97;;;21.10;99.90;;;;;;5010777;28;20050;-61
2023/09/29 10:23:45;;;;;;;8.68;4.22;;;21.20;99.90;;;;;;5009518;28;20455;-61
2023/09/29 10:26:13;;;;;;;6.60;3.58;;;21.30;99.90;;;;;;5009689;28;20370;-60
2023/09/29 10:28:40;;;;;;;7.63;3.88;;;21.30;99.90;;;;;;5009682;28;20061;-60
2023/09/29 10:31:17;;;;;;;5.30;4.10;;;21.30;99.90;;;;;;5010460;28;20108;-59
2023/09/29 10:33:54;;;;;;;7.95;4.28;;;21.50;99.90;;;;;;5010356;28;20053;-60
2023/09/29 10:36:23;;;;;;;7.03;3.90;;;21.50;99.90;;;;;;5008919;28;20077;-61
2023/09/29 10:38:50;;;;;;;6.50;4.15;;;21.60;99.90;;;;;;5009212;28;20064;-59
2023/09/29 10:41:18;;;;;;;8.05;4.57;;;21.60;99.90;;;;;;5009606;28;20463;-58
2023/09/29 10:43:48;;;;;;;6.38;4.45;;;21.70;99.90;;;;;;5008840;28;20082;-61
2023/09/29 10:46:16;;;;;;;6.80;4.50;;;21.70;99.90;;;;;;5009402;28;20470;-61
2023/09/29 10:48:49;;;;;;;8.10;4.97;;;21.60;99.90;;;;;;5010035;28;20054;-61
2023/09/29 10:51:30;;;;;;;6.47;5.10;;;21.60;99.90;;;;;;5016332;28;20050;-60
2023/09/29 10:54:07;;;;;;;6.80;5.07;;;21.60;99.90;;;;;;4996235;28;20058;-60
2023/09/29 10:56:35;;;;;;;6.90;5.10;;;21.60;99.90;;;;;;5003277;28;20486;-59
2023/09/29 10:59:08;;;;;;;8.15;5.22;;;21.50;99.90;;;;;;5016089;28;20057;-61
2023/09/29 11:01:35;;;;;;;9.15;4.90;;;21.60;99.90;;;;;;5016569;28;20050;-59
2023/09/29 11:04:08;;;;;;;7.43;5.10;;;21.60;99.90;;;;;;5015881;28;20056;-60
2023/09/29 11:06:45;;;;;;;9.55;5.13;;;21.70;99.90;;;;;;5016228;28;20056;-60
2023/09/29 11:09:19;;;;;;;6.68;5.13;;;21.70;99.90;;;;;;5016032;28;20053;-61
2023/09/29 11:11:46;;;;;;;9.98;4.85;;;21.80;99.90;;;;;;5016059;28;20057;-60
2023/09/29 11:14:12;;;;;;;10.07;4.60;;;21.80;99.90;;;;;;5015541;28;20418;-60
2023/09/29 11:16:38;;;;;;;7.70;4.85;;;21.80;99.90;;;;;;5016201;28;20046;-59
2023/09/29 11:19:12;;;;;;;6.20;4.65;;;21.80;99.90;;;;;;5025631;28;20072;-61
2023/09/29 11:21:40;;;;;;;5.85;4.03;;;21.90;99.90;;;;;;5036116;28;20409;-62
2023/09/29 11:24:09;;;;;;;6.75;4.53;;;21.90;99.90;;;;;;5035233;28;20068;-61
2023/09/29 11:26:40;;;;;;;7.45;4.47;;;22.10;99.90;;;;;;5027921;28;20459;-61
2023/09/29 11:29:08;;;;;;;5.70;3.90;;;22.20;99.90;;;;;;5015251;28;20046;-61
2023/09/29 11:31:37;;;;;;;7.15;4.50;;;22.10;99.90;;;;;;5015808;28;20054;-61
2023/09/29 11:34:03;;;;;;;6.40;4.07;;;22.20;99.90;;;;;;5015113;28;20493;-60
2023/09/29 11:36:29;;;;;;;7.40;4.28;;;22.20;99.90;;;;;;4997953;28;20110;-60
2023/09/29 11:38:56;;;;;;;5.00;4.03;;;22.30;99.90;;;;;;5014482;28;20050;-60
2023/09/29 11:41:22;;;;;;;5.32;3.70;;;22.30;99.90;;;;;;5015564;28;20042;-61
2023/09/29 11:43:49;;;;;;;7.18;3.95;;;22.40;99.90;;;;;;5015644;28;20363;-61
2023/09/29 11:46:16;;;;;;;8.30;3.70;;;22.30;99.90;;;;;;5015527;28;20490;-61
2023/09/29 11:48:43;;;;;;;6.88;3.97;;;22.40;99.90;;;;;;5015290;28;20125;-62
2023/09/29 11:51:11;;;;;;;6.05;3.78;;;22.30;99.90;;;;;;5016060;28;20054;-61
2023/09/29 11:53:40;;;;;;;9.95;3.83;;;22.30;99.90;;;;;;5015067;28;20053;-60
2023/09/29 11:56:07;;;;;;;11.38;3.67;;;22.30;99.90;;;;;;5013863;28;20054;-62
2023/09/29 11:58:35;;;;;;;6.78;3.92;;;22.20;99.90;;;;;;5013816;28;20367;-60
2023/09/29 12:01:02;;;;;;;5.90;3.45;;;22.10;99.90;;;;;;5013100;28;20042;-59
2023/09/29 12:03:28;;;;;;;9.52;4.20;;;22.00;99.90;;;;;;5011989;28;20046;-60
2023/09/29 12:05:55;;;;;;;6.38;4.28;;;21.70;99.90;;;;;;5012228;28;20455;-60
2023/09/29 12:08:21;;;;;;;6.78;4.40;;;21.40;99.90;;;;;;5012527;28;20046;-61
2023/09/29 12:10:48;;;;;;;5.50;4.10;;;21.10;99.90;;;;;;5012420;28;20053;-58
2023/09/29 12:13:15;;;;;;;5.35;4.35;;;21.00;99.90;;;;;;5011966;28;20076;-59
2023/09/29 12:15:43;;;;;;;5.22;4.03;;;20.70;99.90;;;;;;5012297;28;20509;-61
2023/09/29 12:18:10;;;;;;;5.68;4.20;;;20.60;99.90;;;;;;5012316;28;20054;-61
2023/09/29 12:20:38;;;;;;;5.45;3.90;;;20.50;99.90;;;;;;5012429;28;20073;-61
2023/09/29 12:23:08;;;;;;;4.60;3.78;;;20.50;99.90;;;;;;5011971;28;20053;-60
2023/09/29 12:25:35;;;;;;;5.88;4.47;;;20.50;99.90;;;;;;5011818;28;20112;-59
2023/09/29 12:28:05;;;;;;;5.45;4.60;;;20.50;99.90;;;;;;5011766;28;20046;-61
2023/09/29 12:30:32;;;;;;;5.22;4.72;;;20.50;99.90;;;;;;5011996;28;20049;-61
2023/09/29 12:32:59;;;;;;;7.07;4.65;;;20.30;99.90;;;;;;5011226;28;20139;-60
2023/09/29 12:35:26;;;;;;;7.32;5.50;;;20.30;99.90;;;;;;5012130;28;20065;-59
2023/09/29 12:37:52;;;;;;;4.55;4.15;;;20.20;99.90;;;;;;4993766;28;20102;-61
2023/09/29 12:40:18;;;;;;;5.05;3.38;;;20.20;99.90;;;;;;5011622;28;20046;-59
2023/09/29 12:42:49;;;;;;;2.78;1.65;;;19.90;99.90;;;;;;5011034;28;20470;-60
2023/09/29 12:45:18;;;;;;;2.63;1.52;;;19.40;99.90;;;;;;5011849;28;20057;-59